sensor_id;sensor_type;location;lat;lon;timestamp;pressure;altitude;pressure_sealevel;temperature;humidity
75594;BME280;64176;49.156;7.810;2023-09-19T00:00:48;98715.13;;;15.28;100.00
75594;BME280;64176;49.156;7.810;2023-09-19T00:03:35;98726.91;;;15.46;100.00
75594;BME280;64176;49.156;7.810;2023-09-19T00:06:25;98727.56;;;15.57;100.00
75594;BME280;64176;49.156;7.810;2023-09-19T00:09:13;98725.13;;;15.85;100.00
75594;BME280;64176;49.156;7.810;2023-09-19T00:12:00;98728.69;;;15.81;100.00
75594;BME280;64176;49.156;7.810;2023-09-19T00:14:47;98731.69;;;16.01;100.00
75594;BME280;64176;49.156;7.810;2023-09-19T00:17:31;98736.72;;;16.09;100.00
75594;BME280;64176;49.156;7.810;2023-09-19T00:20:16;98731.47;;;16.10;100.00
75594;BME280;64176;49.156;7.810;2023-09-19T00:23:02;98737.94;;;16.28;100.00
75594;BME280;64176;49.156;7.810;2023-09-19T00:25:49;98745.94;;;16.22;100.00
75594;BME280;64176;49.156;7.810;2023-09-19T00:28:35;98744.94;;;16.26;100.00
75594;BME280;64176;49.156;7.810;2023-09-19T00:31:19;98733.03;;;16.16;100.00
75594;BME280;64176;49.156;7.810;2023-09-19T00:34:04;98748.38;;;16.28;100.00
75594;BME280;64176;49.156;7.810;2023-09-19T00:36:53;98742.28;;;16.29;100.00
75594;BME280;64176;49.156;7.810;2023-09-19T00:39:39;98750.06;;;16.30;100.00
75594;BME280;64176;49.156;7.810;2023-09-19T00:42:24;98749.91;;;16.35;100.00
75594;BME280;64176;49.156;7.810;2023-09-19T00:45:11;98753.53;;;16.31;100.00
75594;BME280;64176;49.156;7.810;2023-09-19T00:47:56;98739.63;;;16.30;100.00
75594;BME280;64176;49.156;7.810;2023-09-19T00:50:43;98751.50;;;16.42;100.00
75594;BME280;64176;49.156;7.810;2023-09-19T00:53:32;98744.00;;;16.30;100.00
75594;BME280;64176;49.156;7.810;2023-09-19T00:56:21;98752.47;;;16.38;100.00
75594;BME280;64176;49.156;7.810;2023-09-19T00:59:07;98761.19;;;16.37;100.00
75594;BME280;64176;49.156;7.810;2023-09-19T01:01:51;98761.22;;;16.35;100.00
75594;BME280;64176;49.156;7.810;2023-09-19T01:04:37;98766.31;;;16.40;100.00
75594;BME280;64176;49.156;7.810;2023-09-19T01:07:22;98764.84;;;16.30;100.00
75594;BME280;64176;49.156;7.810;2023-09-19T01:10:11;98764.88;;;16.28;100.00
75594;BME280;64176;49.156;7.810;2023-09-19T01:15:58;98769.91;;;16.36;100.00
75594;BME280;64176;49.156;7.810;2023-09-19T01:22:12;98776.09;;;16.32;100.00
75594;BME280;64176;49.156;7.810;2023-09-19T01:31:28;98760.84;;;16.17;100.00
75594;BME280;64176;49.156;7.810;2023-09-19T01:34:17;98769.31;;;16.25;100.00
75594;BME280;64176;49.156;7.810;2023-09-19T01:37:04;98773.81;;;16.20;100.00
75594;BME280;64176;49.156;7.810;2023-09-19T01:39:53;98785.81;;;16.25;100.00
75594;BME280;64176;49.156;7.810;2023-09-19T01:46:06;98785.84;;;16.24;100.00
75594;BME280;64176;49.156;7.810;2023-09-19T01:49:31;98798.97;;;16.21;100.00
75594;BME280;64176;49.156;7.810;2023-09-19T01:52:28;98805.88;;;16.23;100.00
75594;BME280;64176;49.156;7.810;2023-09-19T01:55:15;98806.00;;;16.17;100.00
75594;BME280;64176;49.156;7.810;2023-09-19T02:00:54;98805.38;;;16.08;100.00
75594;BME280;64176;49.156;7.810;2023-09-19T02:03:39;98813.81;;;16.19;100.00
75594;BME280;64176;49.156;7.810;2023-09-19T02:06:24;98807.78;;;16.15;100.00
75594;BME280;64176;49.156;7.810;2023-09-19T02:09:10;98816.91;;;15.97;100.00
75594;BME280;64176;49.156;7.810;2023-09-19T02:11:54;98822.78;;;16.07;100.00
75594;BME280;64176;49.156;7.810;2023-09-19T02:14:40;98815.84;;;16.06;100.00
75594;BME280;64176;49.156;7.810;2023-09-19T02:17:25;98823.72;;;16.03;100.00
75594;BME280;64176;49.156;7.810;2023-09-19T02:20:12;98823.63;;;16.08;100.00
75594;BME280;64176;49.156;7.810;2023-09-19T02:22:58;98812.31;;;16.09;100.00
75594;BME280;64176;49.156;7.810;2023-09-19T02:25:51;98822.59;;;16.13;100.00
75594;BME280;64176;49.156;7.810;2023-09-19T02:28:35;98821.63;;;16.19;100.00
75594;BME280;64176;49.156;7.810;2023-09-19T02:31:19;98816.00;;;16.00;100.00
75594;BME280;64176;49.156;7.810;2023-09-19T02:34:03;98841.03;;;16.07;100.00
75594;BME280;64176;49.156;7.810;2023-09-19T02:36:54;98844.69;;;15.98;100.00
75594;BME280;64176;49.156;7.810;2023-09-19T02:39:41;98841.97;;;16.03;100.00
75594;BME280;64176;49.156;7.810;2023-09-19T02:42:28;98836.28;;;15.86;100.00
75594;BME280;64176;49.156;7.810;2023-09-19T02:45:17;98832.75;;;15.90;100.00
75594;BME280;64176;49.156;7.810;2023-09-19T02:48:06;98835.09;;;16.00;100.00
75594;BME280;64176;49.156;7.810;2023-09-19T02:50:52;98841.28;;;15.95;100.00
75594;BME280;64176;49.156;7.810;2023-09-19T02:53:39;98847.41;;;15.94;100.00
75594;BME280;64176;49.156;7.810;2023-09-19T02:56:23;98841.28;;;15.95;100.00
75594;BME280;64176;49.156;7.810;2023-09-19T02:59:09;98851.00;;;15.90;100.00
75594;BME280;64176;49.156;7.810;2023-09-19T03:01:54;98849.59;;;15.74;100.00
75594;BME280;64176;49.156;7.810;2023-09-19T03:04:38;98838.88;;;15.87;100.00
75594;BME280;64176;49.156;7.810;2023-09-19T03:07:28;98852.78;;;15.86;100.00
75594;BME280;64176;49.156;7.810;2023-09-19T03:10:13;98844.09;;;15.87;100.00
75594;BME280;64176;49.156;7.810;2023-09-19T03:13:02;98837.28;;;15.80;100.00
75594;BME280;64176;49.156;7.810;2023-09-19T03:15:49;98848.38;;;15.90;100.00
75594;BME280;64176;49.156;7.810;2023-09-19T03:18:37;98845.81;;;15.88;100.00
75594;BME280;64176;49.156;7.810;2023-09-19T03:21:24;98865.94;;;15.80;100.00
75594;BME280;64176;49.156;7.810;2023-09-19T03:24:09;98864.34;;;15.75;100.00
75594;BME280;64176;49.156;7.810;2023-09-19T03:26:59;98862.81;;;15.64;100.00
75594;BME280;64176;49.156;7.810;2023-09-19T03:29:43;98865.38;;;15.68;100.00
75594;BME280;64176;49.156;7.810;2023-09-19T03:32:28;98863.06;;;15.51;100.00
75594;BME280;64176;49.156;7.810;2023-09-19T03:35:14;98866.56;;;15.50;100.00
75594;BME280;64176;49.156;7.810;2023-09-19T03:37:59;98866.53;;;15.51;100.00
75594;BME280;64176;49.156;7.810;2023-09-19T03:40:43;98873.53;;;15.49;100.00
75594;BME280;64176;49.156;7.810;2023-09-19T03:43:28;98859.78;;;15.43;100.00
75594;BME280;64176;49.156;7.810;2023-09-19T03:46:14;98865.91;;;15.40;100.00
75594;BME280;64176;49.156;7.810;2023-09-19T03:49:02;98871.75;;;15.51;100.00
75594;BME280;64176;49.156;7.810;2023-09-19T03:51:46;98862.56;;;15.34;100.00
75594;BME280;64176;49.156;7.810;2023-09-19T03:54:31;98870.59;;;15.23;100.00
75594;BME280;64176;49.156;7.810;2023-09-19T03:57:15;98867.28;;;15.13;100.00
75594;BME280;64176;49.156;7.810;2023-09-19T04:00:10;98874.38;;;15.07;100.00
75594;BME280;64176;49.156;7.810;2023-09-19T04:03:00;98879.41;;;15.14;100.00
75594;BME280;64176;49.156;7.810;2023-09-19T04:05:52;98876.75;;;15.17;100.00
75594;BME280;64176;49.156;7.810;2023-09-19T04:08:38;98868.44;;;14.99;100.00
75594;BME280;64176;49.156;7.810;2023-09-19T04:11:27;98883.56;;;14.78;100.00
75594;BME280;64176;49.156;7.810;2023-09-19T04:14:11;98889.50;;;14.86;100.00
75594;BME280;64176;49.156;7.810;2023-09-19T04:16:58;98889.50;;;14.85;100.00
75594;BME280;64176;49.156;7.810;2023-09-19T04:19:42;98888.66;;;14.84;100.00
75594;BME280;64176;49.156;7.810;2023-09-19T04:22:28;98887.09;;;14.74;100.00
75594;BME280;64176;49.156;7.810;2023-09-19T04:25:17;98899.28;;;14.72;100.00
75594;BME280;64176;49.156;7.810;2023-09-19T04:28:05;98884.69;;;14.62;100.00
75594;BME280;64176;49.156;7.810;2023-09-19T04:30:53;98897.72;;;14.62;100.00
75594;BME280;64176;49.156;7.810;2023-09-19T04:33:37;98898.00;;;14.45;100.00
75594;BME280;64176;49.156;7.810;2023-09-19T04:36:27;98903.94;;;14.52;100.00
75594;BME280;64176;49.156;7.810;2023-09-19T04:39:11;98904.91;;;14.46;100.00
75594;BME280;64176;49.156;7.810;2023-09-19T04:41:59;98911.91;;;14.38;100.00
75594;BME280;64176;49.156;7.810;2023-09-19T04:44:47;98905.06;;;14.36;100.00
75594;BME280;64176;49.156;7.810;2023-09-19T04:47:33;98909.56;;;14.25;100.00
75594;BME280;64176;49.156;7.810;2023-09-19T04:50:17;98910.19;;;14.40;100.00
75594;BME280;64176;49.156;7.810;2023-09-19T04:53:02;98895.59;;;14.29;100.00
75594;BME280;64176;49.156;7.810;2023-09-19T04:55:51;98898.06;;;14.38;100.00
75594;BME280;64176;49.156;7.810;2023-09-19T04:58:36;98922.59;;;14.20;100.00
75594;BME280;64176;49.156;7.810;2023-09-19T05:01:25;98921.88;;;14.12;100.00
75594;BME280;64176;49.156;7.810;2023-09-19T05:04:14;98923.59;;;14.13;100.00
75594;BME280;64176;49.156;7.810;2023-09-19T05:07:04;98918.28;;;14.19;100.00
75594;BME280;64176;49.156;7.810;2023-09-19T05:09:48;98923.53;;;14.16;100.00
75594;BME280;64176;49.156;7.810;2023-09-19T05:12:34;98932.88;;;14.29;100.00
75594;BME280;64176;49.156;7.810;2023-09-19T05:15:19;98935.63;;;14.18;100.00
75594;BME280;64176;49.156;7.810;2023-09-19T05:18:03;98926.84;;;14.26;100.00
75594;BME280;64176;49.156;7.810;2023-09-19T05:20:53;98947.88;;;14.10;100.00
75594;BME280;64176;49.156;7.810;2023-09-19T05:23:40;98949.66;;;14.04;100.00
75594;BME280;64176;49.156;7.810;2023-09-19T05:26:26;98951.19;;;14.21;100.00
75594;BME280;64176;49.156;7.810;2023-09-19T05:29:15;98948.53;;;14.25;100.00
75594;BME280;64176;49.156;7.810;2023-09-19T05:31:59;98964.03;;;14.31;100.00
75594;BME280;64176;49.156;7.810;2023-09-19T05:34:43;98960.22;;;14.57;100.00
75594;BME280;64176;49.156;7.810;2023-09-19T05:37:28;98957.53;;;14.62;100.00
75594;BME280;64176;49.156;7.810;2023-09-19T05:40:16;98966.06;;;14.70;100.00
75594;BME280;64176;49.156;7.810;2023-09-19T05:43:03;98947.72;;;14.79;100.00
75594;BME280;64176;49.156;7.810;2023-09-19T05:45:49;98958.00;;;14.87;100.00
75594;BME280;64176;49.156;7.810;2023-09-19T05:48:41;98959.59;;;14.94;100.00
75594;BME280;64176;49.156;7.810;2023-09-19T05:51:28;98969.16;;;14.93;100.00
75594;BME280;64176;49.156;7.810;2023-09-19T05:54:14;98981.91;;;15.09;98.69
75594;BME280;64176;49.156;7.810;2023-09-19T05:57:02;98970.66;;;15.07;98.40
75594;BME280;64176;49.156;7.810;2023-09-19T05:59:46;98984.59;;;15.03;98.90
75594;BME280;64176;49.156;7.810;2023-09-19T06:02:37;98996.59;;;15.13;98.07
75594;BME280;64176;49.156;7.810;2023-09-19T06:05:22;98993.91;;;15.17;96.93
75594;BME280;64176;49.156;7.810;2023-09-19T06:08:08;98992.22;;;15.15;97.44
75594;BME280;64176;49.156;7.810;2023-09-19T06:10:55;98984.50;;;15.10;97.19
75594;BME280;64176;49.156;7.810;2023-09-19T06:13:40;99006.66;;;15.34;96.06
75594;BME280;64176;49.156;7.810;2023-09-19T06:16:24;98997.97;;;15.34;95.17
75594;BME280;64176;49.156;7.810;2023-09-19T06:19:09;98997.97;;;15.34;95.50
75594;BME280;64176;49.156;7.810;2023-09-19T06:21:56;99009.78;;;15.54;94.51
75594;BME280;64176;49.156;7.810;2023-09-19T06:24:42;98993.31;;;15.49;94.29
75594;BME280;64176;49.156;7.810;2023-09-19T06:27:29;98999.19;;;15.63;92.36
75594;BME280;64176;49.156;7.810;2023-09-19T06:30:15;98999.09;;;15.68;92.29
75594;BME280;64176;49.156;7.810;2023-09-19T06:33:01;99000.47;;;15.86;91.81
75594;BME280;64176;49.156;7.810;2023-09-19T06:35:47;99003.13;;;15.83;92.17
75594;BME280;64176;49.156;7.810;2023-09-19T06:38:31;98997.88;;;15.86;90.16
75594;BME280;64176;49.156;7.810;2023-09-19T06:41:21;98994.47;;;15.81;89.82
75594;BME280;64176;49.156;7.810;2023-09-19T06:44:10;99004.53;;;16.00;89.64
75594;BME280;64176;49.156;7.810;2023-09-19T06:46:59;99000.66;;;16.20;89.21
75594;BME280;64176;49.156;7.810;2023-09-19T06:49:43;99008.56;;;16.14;89.40
75594;BME280;64176;49.156;7.810;2023-09-19T06:52:32;99009.75;;;16.00;88.58
75594;BME280;64176;49.156;7.810;2023-09-19T06:55:18;99011.38;;;16.05;89.02
75594;BME280;64176;49.156;7.810;2023-09-19T06:58:08;99016.59;;;16.05;88.39
75594;BME280;64176;49.156;7.810;2023-09-19T07:00:59;99018.38;;;16.02;88.28
75594;BME280;64176;49.156;7.810;2023-09-19T07:03:43;99033.31;;;15.94;88.43
75594;BME280;64176;49.156;7.810;2023-09-19T07:06:30;99017.78;;;15.90;88.92
75594;BME280;64176;49.156;7.810;2023-09-19T07:09:14;99028.84;;;16.01;88.73
75594;BME280;64176;49.156;7.810;2023-09-19T07:11:58;99025.66;;;15.87;88.99
75594;BME280;64176;49.156;7.810;2023-09-19T07:14:44;99036.09;;;15.85;88.56
75594;BME280;64176;49.156;7.810;2023-09-19T07:17:28;99043.53;;;16.05;88.55
75594;BME280;64176;49.156;7.810;2023-09-19T07:20:14;99042.13;;;15.89;89.05
75594;BME280;64176;49.156;7.810;2023-09-19T07:23:00;99029.06;;;15.90;89.56
75594;BME280;64176;49.156;7.810;2023-09-19T07:25:44;99034.13;;;15.98;87.76
75594;BME280;64176;49.156;7.810;2023-09-19T07:28:35;99056.84;;;16.34;85.47
75594;BME280;64176;49.156;7.810;2023-09-19T07:31:20;99064.28;;;16.11;86.27
75594;BME280;64176;49.156;7.810;2023-09-19T07:34:08;99063.38;;;16.12;86.14
75594;BME280;64176;49.156;7.810;2023-09-19T07:36:54;99068.50;;;16.17;84.98
75594;BME280;64176;49.156;7.810;2023-09-19T07:39:41;99080.59;;;16.61;82.44
75594;BME280;64176;49.156;7.810;2023-09-19T07:42:29;99078.28;;;16.47;84.72
75594;BME280;64176;49.156;7.810;2023-09-19T07:45:15;99085.16;;;16.51;83.17
75594;BME280;64176;49.156;7.810;2023-09-19T07:48:03;99082.84;;;16.37;83.71
75594;BME280;64176;49.156;7.810;2023-09-19T07:50:48;99091.03;;;16.61;81.96
75594;BME280;64176;49.156;7.810;2023-09-19T07:53:33;99087.56;;;16.62;82.52
75594;BME280;64176;49.156;7.810;2023-09-19T07:56:21;99095.66;;;16.48;82.50
75594;BME280;64176;49.156;7.810;2023-09-19T07:59:07;99103.47;;;16.48;82.02
75594;BME280;64176;49.156;7.810;2023-09-19T08:01:54;99094.03;;;16.44;81.07
75594;BME280;64176;49.156;7.810;2023-09-19T08:04:38;99101.44;;;16.22;80.45
75594;BME280;64176;49.156;7.810;2023-09-19T08:07:25;99100.19;;;16.40;80.59
75594;BME280;64176;49.156;7.810;2023-09-19T08:10:13;99102.19;;;16.27;80.74
75594;BME280;64176;49.156;7.810;2023-09-19T08:13:00;99101.22;;;16.33;79.86
75594;BME280;64176;49.156;7.810;2023-09-19T08:15:46;99102.34;;;16.63;78.80
75594;BME280;64176;49.156;7.810;2023-09-19T08:18:36;99106.59;;;17.05;78.32
75594;BME280;64176;49.156;7.810;2023-09-19T08:21:24;99109.78;;;17.55;75.84
75594;BME280;64176;49.156;7.810;2023-09-19T08:24:12;99117.19;;;18.06;72.71
75594;BME280;64176;49.156;7.810;2023-09-19T08:26:57;99112.00;;;17.70;74.81
75594;BME280;64176;49.156;7.810;2023-09-19T08:29:41;99117.47;;;17.60;74.28
75594;BME280;64176;49.156;7.810;2023-09-19T08:32:29;99108.13;;;17.51;73.66
75594;BME280;64176;49.156;7.810;2023-09-19T08:35:15;99109.44;;;17.33;73.68
75594;BME280;64176;49.156;7.810;2023-09-19T08:38:02;99109.53;;;17.66;73.23
75594;BME280;64176;49.156;7.810;2023-09-19T08:40:48;99107.47;;;17.43;72.75
75594;BME280;64176;49.156;7.810;2023-09-19T08:43:34;99124.38;;;17.27;75.06
75594;BME280;64176;49.156;7.810;2023-09-19T08:46:20;99129.81;;;17.18;74.10
75594;BME280;64176;49.156;7.810;2023-09-19T08:49:05;99114.06;;;16.84;nan
75594;BME280;64176;49.156;7.810;2023-09-19T08:52:05;99123.97;;;17.08;74.94
75594;BME280;64176;49.156;7.810;2023-09-19T08:54:59;99125.69;;;17.09;74.10
75594;BME280;64176;49.156;7.810;2023-09-19T08:57:49;99128.41;;;17.03;73.29
75594;BME280;64176;49.156;7.810;2023-09-19T09:00:34;99124.94;;;17.02;74.30
75594;BME280;64176;49.156;7.810;2023-09-19T09:03:20;99126.91;;;17.31;73.94
75594;BME280;64176;49.156;7.810;2023-09-19T09:06:07;99121.91;;;17.22;73.13
75594;BME280;64176;49.156;7.810;2023-09-19T09:09:05;99130.84;;;17.47;72.79
75594;BME280;64176;49.156;7.810;2023-09-19T09:11:52;99118.53;;;17.53;73.26
75594;BME280;64176;49.156;7.810;2023-09-19T09:14:38;99116.34;;;17.71;71.89
75594;BME280;64176;49.156;7.810;2023-09-19T09:17:27;99130.50;;;17.63;71.77
75594;BME280;64176;49.156;7.810;2023-09-19T09:20:11;99121.28;;;17.46;69.38
75594;BME280;64176;49.156;7.810;2023-09-19T09:22:56;99130.38;;;17.67;71.66
75594;BME280;64176;49.156;7.810;2023-09-19T09:25:52;99119.59;;;17.79;70.54
75594;BME280;64176;49.156;7.810;2023-09-19T09:28:45;99127.28;;;17.87;70.30
75594;BME280;64176;49.156;7.810;2023-09-19T09:31:29;99129.06;;;17.85;70.32
75594;BME280;64176;49.156;7.810;2023-09-19T09:34:16;99113.16;;;17.93;70.21
75594;BME280;64176;49.156;7.810;2023-09-19T09:37:05;99116.25;;;17.76;70.01
75594;BME280;64176;49.156;7.810;2023-09-19T09:39:50;99116.88;;;17.84;70.43
75594;BME280;64176;49.156;7.810;2023-09-19T09:42:36;99121.66;;;18.01;70.59
75594;BME280;64176;49.156;7.810;2023-09-19T09:45:23;99104.22;;;18.01;70.02
75594;BME280;64176;49.156;7.810;2023-09-19T09:48:24;99127.53;;;17.78;71.22
75594;BME280;64176;49.156;7.810;2023-09-19T09:51:31;99122.53;;;17.67;71.11
75594;BME280;64176;49.156;7.810;2023-09-19T09:54:16;99132.56;;;17.84;71.56
75594;BME280;64176;49.156;7.810;2023-09-19T09:57:10;99117.78;;;17.47;71.27
75594;BME280;64176;49.156;7.810;2023-09-19T10:00:01;99121.88;;;17.93;70.90
75594;BME280;64176;49.156;7.810;2023-09-19T10:03:00;99114.53;;;18.38;71.57
75594;BME280;64176;49.156;7.810;2023-09-19T10:05:44;99117.13;;;17.75;71.35
75594;BME280;64176;49.156;7.810;2023-09-19T10:08:29;99113.53;;;17.79;72.90
75594;BME280;64176;49.156;7.810;2023-09-19T10:11:18;99104.81;;;17.78;72.01
75594;BME280;64176;49.156;7.810;2023-09-19T10:14:04;99104.16;;;17.70;73.83
75594;BME280;64176;49.156;7.810;2023-09-19T10:16:58;99099.31;;;17.55;71.15
75594;BME280;64176;49.156;7.810;2023-09-19T10:20:00;99109.81;;;17.54;70.98
75594;BME280;64176;49.156;7.810;2023-09-19T10:22:53;99102.22;;;17.43;72.32
75594;BME280;64176;49.156;7.810;2023-09-19T10:25:44;99096.19;;;17.41;72.92
75594;BME280;64176;49.156;7.810;2023-09-19T10:28:39;99094.56;;;17.35;73.72
75594;BME280;64176;49.156;7.810;2023-09-19T10:31:28;99100.00;;;17.62;72.48
75594;BME280;64176;49.156;7.810;2023-09-19T10:34:16;99101.25;;;17.47;72.95
75594;BME280;64176;49.156;7.810;2023-09-19T10:37:02;99090.47;;;17.59;72.93
75594;BME280;64176;49.156;7.810;2023-09-19T10:39:51;99101.19;;;17.84;72.12
75594;BME280;64176;49.156;7.810;2023-09-19T10:42:37;99094.91;;;17.91;72.28
75594;BME280;64176;49.156;7.810;2023-09-19T10:45:22;99095.97;;;17.84;71.96
75594;BME280;64176;49.156;7.810;2023-09-19T10:48:06;99098.97;;;18.01;73.28
75594;BME280;64176;49.156;7.810;2023-09-19T10:56:38;99107.25;;;17.86;70.18
75594;BME280;64176;49.156;7.810;2023-09-19T10:59:26;99102.72;;;17.93;71.97
75594;BME280;64176;49.156;7.810;2023-09-19T11:02:18;99096.91;;;17.81;72.48
75594;BME280;64176;49.156;7.810;2023-09-19T11:05:12;99085.81;;;18.04;71.21
75594;BME280;64176;49.156;7.810;2023-09-19T11:08:02;99083.34;;;18.31;69.78
75594;BME280;64176;49.156;7.810;2023-09-19T11:10:53;99080.06;;;18.53;69.60
75594;BME280;64176;49.156;7.810;2023-09-19T11:26:04;99059.41;;;19.28;61.77
75594;BME280;64176;49.156;7.810;2023-09-19T11:38:59;99041.34;;;19.72;61.22
75594;BME280;64176;49.156;7.810;2023-09-19T11:41:54;99040.78;;;19.63;60.63
75594;BME280;64176;49.156;7.810;2023-09-19T11:44:43;99043.31;;;19.90;61.53
75594;BME280;64176;49.156;7.810;2023-09-19T11:47:31;99050.94;;;19.46;62.60
75594;BME280;64176;49.156;7.810;2023-09-19T11:50:22;99042.56;;;19.35;61.85
75594;BME280;64176;49.156;7.810;2023-09-19T11:53:11;99043.03;;;19.48;64.41
75594;BME280;64176;49.156;7.810;2023-09-19T11:55:56;99040.72;;;19.65;63.32
75594;BME280;64176;49.156;7.810;2023-09-19T11:58:46;99041.97;;;19.55;63.17
75594;BME280;64176;49.156;7.810;2023-09-19T12:01:37;99033.13;;;19.31;64.06
75594;BME280;64176;49.156;7.810;2023-09-19T12:07:25;99042.44;;;19.66;65.55
75594;BME280;64176;49.156;7.810;2023-09-19T12:10:14;99030.88;;;19.72;63.89
75594;BME280;64176;49.156;7.810;2023-09-19T12:13:04;99027.44;;;19.70;62.98
75594;BME280;64176;49.156;7.810;2023-09-19T12:15:53;99025.97;;;19.62;63.06
75594;BME280;64176;49.156;7.810;2023-09-19T12:18:37;99023.91;;;19.44;63.97
75594;BME280;64176;49.156;7.810;2023-09-19T12:24:16;99016.47;;;19.58;64.43
75594;BME280;64176;49.156;7.810;2023-09-19T12:27:06;99012.19;;;19.81;62.75
75594;BME280;64176;49.156;7.810;2023-09-19T12:29:53;99015.25;;;19.69;62.00
75594;BME280;64176;49.156;7.810;2023-09-19T12:32:45;99012.59;;;19.93;60.89
75594;BME280;64176;49.156;7.810;2023-09-19T12:35:32;99002.94;;;19.71;61.10
75594;BME280;64176;49.156;7.810;2023-09-19T12:38:26;98998.91;;;19.85;62.31
75594;BME280;64176;49.156;7.810;2023-09-19T12:41:21;99007.25;;;19.96;61.80
75594;BME280;64176;49.156;7.810;2023-09-19T12:44:06;99000.16;;;20.22;59.85
75594;BME280;64176;49.156;7.810;2023-09-19T12:46:53;98997.00;;;20.37;59.55
75594;BME280;64176;49.156;7.810;2023-09-19T12:52:57;98997.94;;;20.34;58.40
75594;BME280;64176;49.156;7.810;2023-09-19T12:55:44;99003.19;;;20.34;58.11
75594;BME280;64176;49.156;7.810;2023-09-19T12:58:57;98982.16;;;20.36;58.66
75594;BME280;64176;49.156;7.810;2023-09-19T13:01:45;98990.75;;;20.63;57.18
75594;BME280;64176;49.156;7.810;2023-09-19T13:04:36;98992.78;;;20.55;57.22
75594;BME280;64176;49.156;7.810;2023-09-19T13:07:43;98990.31;;;20.74;57.59
75594;BME280;64176;49.156;7.810;2023-09-19T13:10:30;98980.59;;;20.76;57.05
75594;BME280;64176;49.156;7.810;2023-09-19T13:13:24;98987.31;;;20.61;57.21
75594;BME280;64176;49.156;7.810;2023-09-19T13:16:15;98986.88;;;20.71;57.91
75594;BME280;64176;49.156;7.810;2023-09-19T13:19:03;98985.00;;;20.75;56.83
75594;BME280;64176;49.156;7.810;2023-09-19T13:21:52;98999.09;;;20.73;57.84
75594;BME280;64176;49.156;7.810;2023-09-19T13:24:40;98992.94;;;20.74;58.18
75594;BME280;64176;49.156;7.810;2023-09-19T13:27:28;98990.97;;;20.57;58.83
75594;BME280;64176;49.156;7.810;2023-09-19T13:30:13;98982.59;;;20.47;58.65
75594;BME280;64176;49.156;7.810;2023-09-19T13:33:08;98982.56;;;20.70;59.27
75594;BME280;64176;49.156;7.810;2023-09-19T13:35:58;98986.09;;;20.69;58.93
75594;BME280;64176;49.156;7.810;2023-09-19T13:38:42;98984.25;;;20.71;58.88
75594;BME280;64176;49.156;7.810;2023-09-19T13:41:31;98972.22;;;20.66;59.20
75594;BME280;64176;49.156;7.810;2023-09-19T13:44:16;98989.25;;;20.56;58.98
75594;BME280;64176;49.156;7.810;2023-09-19T13:47:01;98985.22;;;20.47;58.84
75594;BME280;64176;49.156;7.810;2023-09-19T13:49:48;98980.66;;;20.52;58.78
75594;BME280;64176;49.156;7.810;2023-09-19T13:52:37;98973.34;;;20.60;59.38
75594;BME280;64176;49.156;7.810;2023-09-19T13:55:27;98960.38;;;20.56;60.14
75594;BME280;64176;49.156;7.810;2023-09-19T13:58:11;98965.56;;;20.34;60.00
75594;BME280;64176;49.156;7.810;2023-09-19T14:01:01;98959.34;;;20.60;59.58
75594;BME280;64176;49.156;7.810;2023-09-19T14:03:45;98958.56;;;20.34;60.04
75594;BME280;64176;49.156;7.810;2023-09-19T14:06:33;98962.34;;;20.51;59.69
75594;BME280;64176;49.156;7.810;2023-09-19T14:09:19;98951.88;;;20.71;60.33
75594;BME280;64176;49.156;7.810;2023-09-19T14:12:07;98951.47;;;20.60;60.66
75594;BME280;64176;49.156;7.810;2023-09-19T14:14:51;98947.88;;;20.41;60.92
75594;BME280;64176;49.156;7.810;2023-09-19T14:17:35;98946.16;;;20.40;60.91
75594;BME280;64176;49.156;7.810;2023-09-19T14:20:21;98944.81;;;20.51;59.45
75594;BME280;64176;49.156;7.810;2023-09-19T14:23:09;98959.88;;;20.68;58.69
75594;BME280;64176;49.156;7.810;2023-09-19T14:25:53;98941.22;;;20.76;58.38
75594;BME280;64176;49.156;7.810;2023-09-19T14:28:43;98960.13;;;20.84;57.22
75594;BME280;64176;49.156;7.810;2023-09-19T14:31:31;98958.25;;;20.87;57.59
75594;BME280;64176;49.156;7.810;2023-09-19T14:34:15;98939.34;;;20.78;58.41
75594;BME280;64176;49.156;7.810;2023-09-19T14:37:03;98945.72;;;20.72;58.15
75594;BME280;64176;49.156;7.810;2023-09-19T14:39:54;98943.75;;;20.77;59.16
75594;BME280;64176;49.156;7.810;2023-09-19T14:42:40;98934.50;;;20.89;57.41
75594;BME280;64176;49.156;7.810;2023-09-19T14:45:32;98922.88;;;20.74;58.22
75594;BME280;64176;49.156;7.810;2023-09-19T14:48:17;98937.22;;;20.87;57.62
75594;BME280;64176;49.156;7.810;2023-09-19T14:51:02;98935.19;;;20.94;57.38
75594;BME280;64176;49.156;7.810;2023-09-19T14:53:48;98924.78;;;20.70;58.01
75594;BME280;64176;49.156;7.810;2023-09-19T14:56:35;98924.22;;;20.84;57.93
75594;BME280;64176;49.156;7.810;2023-09-19T14:59:25;98919.28;;;20.77;58.13
75594;BME280;64176;49.156;7.810;2023-09-19T15:02:11;98930.75;;;20.74;58.82
75594;BME280;64176;49.156;7.810;2023-09-19T15:05:02;98921.66;;;20.83;58.06
75594;BME280;64176;49.156;7.810;2023-09-19T15:07:47;98928.09;;;20.76;58.44
75594;BME280;64176;49.156;7.810;2023-09-19T15:10:31;98924.28;;;20.83;59.92
75594;BME280;64176;49.156;7.810;2023-09-19T15:13:15;98921.81;;;20.78;59.61
75594;BME280;64176;49.156;7.810;2023-09-19T15:16:04;98915.66;;;20.79;58.99
75594;BME280;64176;49.156;7.810;2023-09-19T15:18:48;98921.28;;;20.70;58.58
75594;BME280;64176;49.156;7.810;2023-09-19T15:21:36;98917.16;;;20.64;59.18
75594;BME280;64176;49.156;7.810;2023-09-19T15:24:31;98915.19;;;20.69;59.71
75594;BME280;64176;49.156;7.810;2023-09-19T15:27:18;98921.13;;;20.75;59.99
75594;BME280;64176;49.156;7.810;2023-09-19T15:30:07;98926.81;;;20.64;57.93
75594;BME280;64176;49.156;7.810;2023-09-19T15:32:54;98906.88;;;20.58;58.42
75594;BME280;64176;49.156;7.810;2023-09-19T15:35:40;98911.59;;;20.50;57.61
75594;BME280;64176;49.156;7.810;2023-09-19T15:38:25;98910.63;;;20.53;58.12
75594;BME280;64176;49.156;7.810;2023-09-19T15:41:14;98908.66;;;20.58;58.15